Time;durP1;ratioP1;P1;durP2;ratioP2;P2;SDS_P1;SDS_P2;PMS_P1;PMS_P2;Temp;Humidity;BMP_temperature;BMP_pressure;BME280_temperature;BME280_humidity;BME280_pressure;Samples;Min_cycle;Max_cycle;Signal;HPM_P1;HPM_P2
2022/12/11 00:02:01;;;;;;;2.80;2.30;;;22.60;49.00;;;21.20;56.89;95010.53;5010168;28;20096;-62
2022/12/11 00:04:27;;;;;;;3.70;2.33;;;22.60;49.00;;;21.21;56.82;95004.88;5028091;28;20108;-62
2022/12/11 00:06:53;;;;;;;3.05;2.33;;;22.60;49.10;;;21.20;56.57;95003.28;5029788;28;20060;-62
2022/12/11 00:09:19;;;;;;;3.30;2.55;;;22.60;49.10;;;21.18;57.17;95010.81;5012234;28;20539;-62
2022/12/11 00:11:45;;;;;;;3.92;2.50;;;22.60;49.10;;;21.18;56.60;95015.34;5029085;28;20160;-62
2022/12/11 00:14:11;;;;;;;2.92;2.30;;;22.60;49.10;;;21.20;56.92;95003.28;5012310;28;20041;-63
2022/12/11 00:16:37;;;;;;;2.72;2.03;;;22.70;49.10;;;21.19;57.01;95011.59;5029802;28;20525;-62
2022/12/11 00:19:03;;;;;;;3.70;2.60;;;22.70;49.10;;;21.19;56.72;95006.25;5011941;28;20053;-62
2022/12/11 00:21:29;;;;;;;2.85;2.20;;;22.60;49.10;;;21.17;56.37;95011.09;5029677;28;20057;-63
2022/12/11 00:23:54;;;;;;;3.17;2.40;;;22.60;49.10;;;21.17;56.67;95014.56;4978695;28;20156;-64
2022/12/11 00:26:20;;;;;;;4.88;2.30;;;22.70;49.10;;;21.17;56.58;95006.53;5029480;28;20076;-60
2022/12/11 00:28:46;;;;;;;3.50;2.10;;;22.70;49.20;;;21.15;57.04;95005.22;5029379;28;20057;-60
2022/12/11 00:31:16;;;;;;;4.55;2.60;;;22.70;49.20;;;21.16;56.95;95002.28;4979242;28;20044;-60
2022/12/11 00:33:43;;;;;;;5.20;2.60;;;22.70;49.20;;;21.13;56.48;95002.84;4994641;28;20127;-60
2022/12/11 00:36:27;;;;;;;4.53;2.30;;;22.60;49.20;;;21.14;57.21;95004.44;5029478;28;20279;-61
2022/12/11 00:38:52;;;;;;;6.97;2.80;;;22.60;49.20;;;21.12;57.03;95009.25;5028257;28;20113;-60
2022/12/11 00:41:18;;;;;;;3.83;2.60;;;22.60;49.20;;;21.13;57.40;95013.53;5019279;28;20506;-60
2022/12/11 00:43:44;;;;;;;4.70;2.40;;;22.60;49.20;;;21.12;56.69;95011.94;5029195;28;20030;-61
2022/12/11 00:46:10;;;;;;;7.43;2.38;;;22.60;49.20;;;21.12;56.74;95017.28;5029420;28;20060;-61
2022/12/11 00:48:36;;;;;;;4.95;2.50;;;22.60;49.10;;;21.12;56.93;95011.94;5011994;28;20076;-62
2022/12/11 00:51:02;;;;;;;5.65;2.40;;;22.60;49.20;;;21.12;57.07;95017.28;5027800;28;20144;-61
2022/12/11 00:53:28;;;;;;;3.08;2.20;;;22.60;49.20;;;21.12;56.71;95019.16;5028232;28;20037;-61
2022/12/11 00:55:53;;;;;;;3.10;2.40;;;22.60;49.20;;;21.12;57.33;95017.28;5010918;28;20057;-61
2022/12/11 00:58:19;;;;;;;3.83;2.08;;;22.60;49.20;;;21.12;57.23;95014.63;5028250;28;20127;-61
2022/12/11 01:00:47;;;;;;;4.35;2.35;;;22.60;49.20;;;21.11;56.71;95010.34;5028895;28;20057;-61
2022/12/11 01:03:13;;;;;;;4.55;2.35;;;22.60;49.20;;;21.13;56.88;95018.09;5028023;28;20104;-62
2022/12/11 01:05:39;;;;;;;4.07;2.67;;;22.60;49.20;;;21.13;56.87;95020.75;5018828;28;20065;-61
2022/12/11 01:08:05;;;;;;;4.13;2.08;;;22.60;49.20;;;21.12;56.76;95017.28;4995389;28;20056;-61
2022/12/11 01:10:31;;;;;;;3.42;2.22;;;22.60;49.20;;;21.14;57.27;95015.13;4995221;28;20034;-61
2022/12/11 01:13:01;;;;;;;4.25;2.72;;;22.60;49.20;;;21.15;56.74;95013.25;5029016;28;20121;-61
2022/12/11 01:15:29;;;;;;;4.03;2.60;;;22.60;49.10;;;21.14;56.97;95017.81;5029070;28;20038;-61
2022/12/11 01:17:55;;;;;;;3.60;2.10;;;22.60;49.20;;;21.13;56.78;95024.22;5028025;28;20048;-61
2022/12/11 01:20:21;;;;;;;3.97;2.20;;;22.60;49.20;;;21.13;57.41;95024.22;5010821;28;20029;-61
2022/12/11 01:22:47;;;;;;;5.35;2.13;;;22.60;49.10;;;21.12;56.97;95025.31;5010614;28;20033;-62
2022/12/11 01:25:13;;;;;;;4.25;2.28;;;22.60;49.20;;;21.13;57.11;95026.91;5028722;28;20060;-62
2022/12/11 01:27:39;;;;;;;2.83;2.20;;;22.60;49.20;;;21.09;56.67;95024.00;5010181;28;20034;-60
2022/12/11 01:30:06;;;;;;;4.82;2.00;;;22.60;49.20;;;21.11;57.30;95026.38;5010430;28;20138;-61
2022/12/11 01:32:33;;;;;;;3.75;2.22;;;22.60;49.20;;;21.10;57.41;95036.28;5010958;28;20361;-61
2022/12/11 01:34:58;;;;;;;5.28;2.10;;;22.60;49.20;;;21.10;56.92;95032.81;5027935;28;20050;-61
2022/12/11 01:37:24;;;;;;;4.10;2.45;;;22.60;49.20;;;21.10;57.40;95033.63;4994640;28;20060;-60
2022/12/11 01:39:50;;;;;;;3.88;2.25;;;22.60;49.20;;;21.10;56.99;95036.28;5030947;28;20488;-61
2022/12/11 01:42:17;;;;;;;3.03;1.90;;;22.60;49.20;;;21.08;57.13;95041.13;5023914;28;20517;-61
2022/12/11 01:44:43;;;;;;;3.30;2.10;;;22.60;49.20;;;21.08;57.10;95045.66;5031849;28;20033;-61
2022/12/11 01:47:09;;;;;;;3.47;2.00;;;22.60;49.20;;;21.08;57.65;95040.31;5032218;28;20485;-61
2022/12/11 01:49:34;;;;;;;3.70;2.40;;;22.60;49.20;;;21.08;57.48;95048.34;5031437;28;20053;-61
2022/12/11 01:52:07;;;;;;;3.45;2.03;;;22.60;49.20;;;21.08;57.48;95043.00;5014106;28;20072;-61
2022/12/11 01:54:33;;;;;;;2.78;2.10;;;22.60;49.30;;;21.07;56.84;95044.88;5030866;28;20040;-61
2022/12/11 01:57:02;;;;;;;3.67;2.30;;;22.60;49.30;;;21.10;57.29;95054.22;5014028;28;20072;-61
2022/12/11 01:59:29;;;;;;;3.10;1.92;;;22.60;49.30;;;21.10;57.42;95057.69;5030477;28;20044;-61
2022/12/11 02:02:15;;;;;;;3.70;1.95;;;22.60;49.30;;;21.12;57.33;95054.72;5013702;28;20034;-61
2022/12/11 02:04:41;;;;;;;4.00;2.67;;;22.60;49.30;;;21.06;57.12;95047.81;5029430;28;20037;-62
2022/12/11 02:07:08;;;;;;;3.20;2.15;;;22.60;49.30;;;21.10;57.28;95051.53;5031540;28;20562;-61
2022/12/11 02:09:35;;;;;;;2.70;2.10;;;22.60;49.30;;;21.09;57.40;95053.41;5013356;28;20049;-61
2022/12/11 02:12:25;;;;;;;2.95;1.92;;;22.60;49.30;;;21.12;57.56;95053.94;4997536;28;20059;-62
2022/12/11 02:15:17;;;;;;;3.40;2.08;;;22.60;49.30;;;21.11;57.76;95042.44;4999605;28;20042;-61
2022/12/11 02:18:14;;;;;;;4.28;1.90;;;22.60;49.30;;;21.10;56.90;95046.19;5013350;28;20041;-61
2022/12/11 02:21:12;;;;;;;5.15;2.08;;;22.60;49.40;;;21.09;57.49;95033.91;5001260;28;20140;-61
2022/12/11 02:23:47;;;;;;;4.20;1.80;;;22.60;49.40;;;21.07;57.30;95028.84;4982691;28;20037;-61
2022/12/11 02:26:31;;;;;;;2.75;1.80;;;22.60;49.40;;;21.07;57.50;95036.84;5013505;28;20397;-61
2022/12/11 02:29:01;;;;;;;3.00;1.85;;;22.60;49.40;;;21.04;57.42;95023.22;5031106;28;20468;-61
2022/12/11 02:31:39;;;;;;;2.88;1.90;;;22.60;49.40;;;21.06;57.65;95037.94;4981521;28;20056;-61
2022/12/11 02:34:15;;;;;;;4.28;1.80;;;22.60;49.40;;;21.06;57.92;95034.47;4976889;28;20546;-61
2022/12/11 02:36:44;;;;;;;2.08;1.80;;;22.60;49.50;;;21.05;57.85;95024.84;5014249;28;20104;-61
2022/12/11 02:39:12;;;;;;;2.63;1.88;;;22.60;49.50;;;21.04;57.59;95017.88;4997413;28;20025;-61
2022/12/11 02:41:40;;;;;;;2.90;2.10;;;22.60;49.50;;;21.04;57.26;95031.25;4980795;28;20103;-61
2022/12/11 02:44:06;;;;;;;2.58;1.80;;;22.60;49.50;;;21.04;57.75;95028.56;5029496;28;20036;-61
2022/12/11 02:46:32;;;;;;;4.68;1.90;;;22.60;49.50;;;21.00;57.46;95025.66;5027219;28;20053;-61
2022/12/11 02:48:57;;;;;;;4.13;2.03;;;22.60;49.50;;;21.04;57.78;95039.25;4980685;28;20041;-61
2022/12/11 02:51:28;;;;;;;4.45;2.03;;;22.60;49.50;;;21.04;57.22;95036.59;5012266;28;20033;-61
2022/12/11 02:53:55;;;;;;;3.22;1.92;;;22.60;49.50;;;21.05;57.57;95043.56;4996465;28;20432;-62
2022/12/11 02:56:28;;;;;;;4.50;1.90;;;22.60;49.60;;;21.05;58.10;95043.56;4980679;28;20404;-61
2022/12/11 02:59:06;;;;;;;2.20;1.80;;;22.60;49.60;;;21.08;57.61;95045.66;4997295;28;20038;-61
2022/12/11 03:01:31;;;;;;;2.90;2.10;;;22.60;49.60;;;21.04;57.34;95041.94;4981248;28;20045;-61
2022/12/11 03:03:57;;;;;;;3.22;1.85;;;22.60;49.70;;;21.07;57.63;95042.19;4979581;28;20500;-61
2022/12/11 03:06:27;;;;;;;5.25;1.83;;;22.60;49.70;;;21.10;57.85;95048.84;4976549;28;20097;-61
2022/12/11 03:08:52;;;;;;;5.78;2.00;;;22.60;49.70;;;21.10;58.00;95046.19;4977393;28;20524;-61
2022/12/11 03:11:18;;;;;;;3.75;1.98;;;22.60;49.70;;;21.12;57.94;95051.25;4976555;28;20042;-61
2022/12/11 03:13:44;;;;;;;5.70;1.80;;;22.60;49.70;;;21.12;57.76;95052.03;4976256;28;20049;-61
2022/12/11 03:16:31;;;;;;;3.90;1.92;;;22.60;49.60;;;21.14;57.56;95047.22;4992970;28;20045;-61
2022/12/11 03:19:23;;;;;;;3.10;1.85;;;22.70;49.60;;;21.15;57.71;95054.16;4995830;28;20497;-61
2022/12/11 03:22:07;;;;;;;3.47;1.83;;;22.70;49.60;;;21.16;57.80;95055.75;4992466;28;20034;-61
2022/12/11 03:24:40;;;;;;;7.43;1.77;;;22.70;49.60;;;21.16;57.92;95054.94;5010304;28;20366;-61
2022/12/11 03:27:12;;;;;;;3.28;1.98;;;22.70;49.60;;;21.16;57.61;95052.28;4977444;28;20091;-61
2022/12/11 03:29:39;;;;;;;2.22;1.70;;;22.70;49.50;;;21.17;57.46;95061.91;4992479;28;20041;-61
2022/12/11 03:32:12;;;;;;;1.88;1.55;;;22.60;49.50;;;21.17;57.44;95057.34;4976646;28;20034;-61
2022/12/11 03:34:57;;;;;;;5.20;1.98;;;22.70;49.50;;;21.19;57.58;95059.75;4994285;28;20046;-61
2022/12/11 03:37:23;;;;;;;2.55;1.80;;;22.70;49.50;;;21.14;57.63;95057.91;5029935;28;20037;-61
2022/12/11 03:39:54;;;;;;;3.65;1.60;;;22.70;49.50;;;21.16;57.75;95063.78;4978951;28;20041;-61
2022/12/11 03:42:20;;;;;;;3.30;1.90;;;22.70;49.60;;;21.15;57.65;95062.19;4999956;28;20044;-61
2022/12/11 03:44:47;;;;;;;3.28;2.10;;;22.70;49.60;;;21.17;57.73;95061.91;4979374;28;20453;-61
2022/12/11 03:47:15;;;;;;;2.90;1.80;;;22.70;49.70;;;21.13;57.85;95061.66;4996041;28;20026;-61
2022/12/11 03:49:41;;;;;;;4.10;2.15;;;22.60;49.70;;;21.15;57.87;95064.84;4996291;28;20049;-62
2022/12/11 03:52:07;;;;;;;2.72;1.73;;;22.60;49.70;;;21.15;57.99;95067.53;5012221;28;20534;-61
2022/12/11 03:54:33;;;;;;;2.55;1.73;;;22.60;49.80;;;21.16;58.04;95074.47;4995525;28;20042;-61
2022/12/11 03:56:59;;;;;;;5.95;2.00;;;22.60;49.80;;;21.15;57.98;95072.88;4995611;28;20477;-61
2022/12/11 03:59:25;;;;;;;1.67;1.35;;;22.70;49.80;;;21.13;58.56;95069.69;4995331;28;20029;-61
2022/12/11 04:01:50;;;;;;;2.55;1.48;;;22.70;49.70;;;21.15;58.21;95070.19;5011357;28;20064;-62
2022/12/11 04:04:16;;;;;;;3.90;1.83;;;22.60;49.80;;;21.16;57.97;95073.66;5029429;28;20029;-61
2022/12/11 04:06:42;;;;;;;3.15;1.50;;;22.70;49.70;;;21.14;57.92;95073.94;5040469;23;20467;-33
2022/12/11 04:09:08;;;;;;;3.25;1.48;;;22.70;49.60;;;21.14;58.39;95073.94;5009448;28;20456;-32
2022/12/11 04:11:33;;;;;;;4.85;1.90;;;22.70;49.60;;;21.14;57.82;95068.59;5007996;28;20053;-33
2022/12/11 04:16:52;;;;;;;3.65;1.73;;;22.70;49.50;;;21.13;58.32;95067.00;5018771;28;20049;-33
2022/12/11 04:24:48;;;;;;;3.20;1.60;;;22.80;49.50;;;21.12;58.67;95060.06;5014188;28;20048;-32
2022/12/11 04:27:47;;;;;;;2.70;1.48;;;22.80;49.50;;;21.12;58.32;95070.75;5028678;28;20406;-32
2022/12/11 04:29:59;;;;;;;2.38;1.40;;;22.80;49.50;;;21.12;58.41;95070.75;5013304;28;20042;-33
2022/12/11 04:32:25;;;;;;;3.95;1.67;;;22.80;49.50;;;21.12;58.57;95069.97;5028184;28;20063;-33
2022/12/11 04:34:51;;;;;;;3.65;1.63;;;22.80;49.50;;;21.11;58.68;95082.53;5028464;28;20316;-32
2022/12/11 04:37:16;;;;;;;2.03;1.52;;;22.80;49.50;;;21.12;58.68;95069.97;5028669;28;20068;-33
2022/12/11 04:39:42;;;;;;;2.20;1.60;;;22.80;49.40;;;21.13;58.34;95074.25;5027874;28;20132;-33
2022/12/11 04:42:08;;;;;;;2.28;1.67;;;22.80;49.40;;;21.12;58.68;95065.41;5028750;28;20065;-34
2022/12/11 04:44:33;;;;;;;2.53;1.88;;;22.80;49.50;;;21.10;58.61;95064.91;5036682;28;20125;-32
2022/12/11 04:46:59;;;;;;;3.55;1.65;;;22.80;49.50;;;21.09;58.40;95056.09;5029209;28;20036;-36
2022/12/11 04:49:25;;;;;;;2.40;1.70;;;22.80;49.40;;;21.10;58.18;95055.00;5028134;28;20057;-57
2022/12/11 04:51:51;;;;;;;4.18;1.90;;;22.80;49.50;;;21.10;58.57;95052.31;5028373;28;20249;-39
2022/12/11 04:54:16;;;;;;;3.10;1.70;;;22.80;49.50;;;21.10;58.70;95051.53;5028692;28;20061;-38
2022/12/11 04:56:42;;;;;;;2.38;1.65;;;22.70;49.50;;;21.09;58.48;95045.38;5010999;28;20045;-37
2022/12/11 04:59:08;;;;;;;2.67;1.60;;;22.70;49.60;;;21.08;58.06;95043.78;5028019;28;20064;-32
2022/12/11 05:01:34;;;;;;;2.58;1.58;;;22.70;49.50;;;21.11;58.43;95053.13;5027569;28;20042;-32
2022/12/11 05:04:00;;;;;;;3.20;1.67;;;22.80;49.50;;;21.10;58.72;95048.84;5010636;28;20045;-33
2022/12/11 05:06:25;;;;;;;2.88;2.03;;;22.80;49.40;;;21.11;58.36;95050.44;5027938;28;20118;-32
2022/12/11 05:08:52;;;;;;;2.00;1.50;;;22.80;49.60;;;21.09;58.43;95053.41;5028512;28;20065;-33
2022/12/11 05:11:18;;;;;;;2.80;1.42;;;22.70;49.60;;;21.10;57.76;95051.53;5027987;28;20029;-40
2022/12/11 05:13:44;;;;;;;3.00;1.88;;;22.70;49.70;;;21.09;58.79;95050.75;5027719;28;20041;-32
2022/12/11 05:16:12;;;;;;;4.70;1.95;;;22.70;49.50;;;21.10;58.49;95046.19;5028538;28;20052;-32
2022/12/11 05:18:38;;;;;;;3.95;2.03;;;22.70;49.70;;;21.10;58.92;95040.84;4994318;28;20033;-32
2022/12/11 05:21:07;;;;;;;4.65;1.75;;;22.70;49.80;;;21.09;59.01;95040.03;5010732;28;20100;-32
2022/12/11 05:23:33;;;;;;;6.97;1.88;;;22.70;49.80;;;21.09;58.87;95034.69;5028096;28;20125;-32
2022/12/11 05:26:04;;;;;;;5.78;1.90;;;22.70;49.80;;;21.10;58.81;95035.50;5028031;28;20123;-36
2022/12/11 05:28:32;;;;;;;4.57;1.70;;;22.70;49.60;;;21.10;58.76;95036.28;5010484;28;20038;-32
2022/12/11 05:31:09;;;;;;;5.18;1.50;;;22.80;49.60;;;21.10;59.07;95040.84;5028103;28;20033;-32
2022/12/11 05:33:35;;;;;;;7.88;1.77;;;22.80;49.60;;;21.08;58.45;95040.31;4991409;28;20406;-32
2022/12/11 05:36:00;;;;;;;3.38;1.30;;;22.70;49.70;;;21.07;58.97;95026.16;5028430;28;20046;-33
2022/12/11 05:38:26;;;;;;;4.13;1.52;;;22.70;49.60;;;21.08;58.83;95026.94;5027892;28;20064;-32
2022/12/11 05:41:00;;;;;;;3.20;1.42;;;22.80;49.60;;;21.08;58.62;95037.66;5028109;28;20035;-32
2022/12/11 05:43:27;;;;;;;3.90;1.55;;;22.80;49.60;;;21.08;58.34;95032.31;5024769;28;20033;-33
2022/12/11 05:45:53;;;;;;;4.28;1.85;;;22.70;49.70;;;21.08;58.81;95034.97;5027800;28;20033;-32
2022/12/11 05:48:19;;;;;;;3.50;1.40;;;22.70;49.80;;;21.09;58.82;95044.59;5027710;28;20037;-32
2022/12/11 05:50:54;;;;;;;3.58;1.70;;;22.70;49.70;;;21.08;58.87;95037.66;5027668;28;20388;-33
2022/12/11 05:53:20;;;;;;;3.45;1.70;;;22.80;49.70;;;21.09;59.08;95044.59;4995206;28;20029;-32
2022/12/11 05:55:45;;;;;;;4.95;1.58;;;22.80;49.70;;;21.07;58.89;95044.06;5027768;28;20057;-32
2022/12/11 05:58:11;;;;;;;4.00;1.60;;;22.70;49.80;;;21.08;58.77;95048.34;5010351;28;20171;-33
2022/12/11 06:00:40;;;;;;;2.42;1.67;;;22.70;49.90;;;21.08;58.83;95045.66;5027340;28;20471;-32
2022/12/11 06:03:06;;;;;;;5.72;2.05;;;22.70;50.00;;;21.07;58.64;95052.09;4993884;28;20065;-32
2022/12/11 06:05:36;;;;;;;2.67;1.67;;;22.70;50.00;;;21.08;59.09;95045.66;5027519;28;20072;-31
2022/12/11 06:08:01;;;;;;;3.38;1.55;;;22.60;50.10;;;21.07;58.55;95042.19;5010549;28;20048;-32
2022/12/11 06:10:30;;;;;;;2.53;1.27;;;22.60;50.10;;;21.08;58.90;95043.00;5027126;28;20495;-32
2022/12/11 06:12:55;;;;;;;3.90;1.80;;;22.60;50.20;;;21.08;58.56;95043.78;5027920;28;20128;-32
2022/12/11 06:15:21;;;;;;;2.70;1.58;;;22.60;50.20;;;21.08;58.76;95037.66;5027602;28;20506;-32
2022/12/11 06:17:47;;;;;;;3.67;1.77;;;22.60;50.10;;;21.07;59.05;95042.19;5027523;28;20415;-38
2022/12/11 06:20:12;;;;;;;4.05;1.30;;;22.60;50.20;;;21.09;58.73;95033.91;5027674;28;20490;-32
2022/12/11 06:22:38;;;;;;;12.05;1.92;;;22.70;50.10;;;21.09;59.07;95034.69;5027656;28;20845;-32
2022/12/11 06:25:05;;;;;;;11.35;2.22;;;22.70;50.20;;;21.07;59.38;95026.16;5026045;28;20064;-32
2022/12/11 06:27:30;;;;;;;6.50;1.50;;;22.70;50.30;;;21.10;59.28;95035.50;5013325;28;20038;-32
2022/12/11 06:29:56;;;;;;;5.20;1.55;;;22.70;50.40;;;21.10;59.35;95035.50;5030319;28;20185;-32
2022/12/11 06:32:22;;;;;;;3.40;1.60;;;22.70;51.10;;;21.09;60.16;95033.91;5030266;28;20096;-32
2022/12/11 06:34:47;;;;;;;3.08;1.70;;;22.70;51.80;;;21.10;60.47;95038.97;5022382;28;20155;-32
2022/12/11 06:37:13;;;;;;;5.50;1.80;;;22.70;51.10;;;21.11;60.31;95037.09;5030638;28;20177;-33
2022/12/11 06:39:39;;;;;;;6.30;2.10;;;22.80;51.40;;;21.12;60.73;95038.69;5029544;28;20211;-34
2022/12/11 06:42:05;;;;;;;2.60;1.35;;;22.80;51.30;;;21.13;61.26;95034.94;5030685;28;20594;-32
2022/12/11 06:44:30;;;;;;;2.40;1.55;;;22.80;51.90;;;21.13;61.57;95029.56;5047829;28;20056;-32
2022/12/11 06:46:56;;;;;;;3.63;1.55;;;22.80;51.30;;;21.14;60.99;95041.88;5050486;28;20061;-32
2022/12/11 06:49:22;;;;;;;6.80;1.70;;;22.80;51.80;;;21.15;61.24;95034.63;5049939;28;20166;-32
2022/12/11 06:51:48;;;;;;;4.18;1.60;;;22.80;51.40;;;21.16;61.28;95039.72;5042887;28;20041;-32
2022/12/11 06:54:14;;;;;;;5.43;1.38;;;22.80;51.70;;;21.16;61.02;95034.34;5019851;28;20057;-32
2022/12/11 06:56:39;;;;;;;3.20;1.30;;;22.80;52.10;;;21.18;61.69;95039.44;5029415;28;20484;-33
2022/12/11 06:59:06;;;;;;;4.30;1.50;;;22.80;51.80;;;21.17;61.33;95041.31;5030388;28;20112;-33
2022/12/11 07:01:31;;;;;;;4.97;1.55;;;22.80;52.20;;;21.18;61.01;95037.53;5029931;28;20120;-31
2022/12/11 07:03:58;;;;;;;4.30;1.70;;;22.80;51.70;;;21.20;61.49;95034.59;5029734;28;20127;-31
2022/12/11 07:06:25;;;;;;;4.10;1.45;;;22.80;51.60;;;21.19;60.65;95033.78;5029706;28;20030;-31
2022/12/11 07:08:50;;;;;;;37.22;4.53;;;22.80;51.40;;;21.20;62.07;95035.38;5012681;28;20030;-34
2022/12/11 07:11:16;;;;;;;11.32;2.10;;;22.80;53.20;;;21.23;61.43;95034.81;5029339;28;20034;-32
2022/12/11 07:13:42;;;;;;;5.22;1.50;;;22.80;52.80;;;21.24;60.78;95035.66;5029380;28;20037;-33
2022/12/11 07:16:09;;;;;;;5.40;1.90;;;22.80;51.60;;;21.25;60.87;95038.03;5030075;28;20038;-32
2022/12/11 07:18:43;;;;;;;9.02;2.88;;;22.80;51.00;;;21.25;59.99;95038.03;5029758;28;20034;-32
2022/12/11 07:21:10;;;;;;;7.07;1.88;;;22.80;51.00;;;21.27;60.21;95046.56;5012035;28;20139;-32
2022/12/11 07:23:36;;;;;;;3.30;1.55;;;22.80;50.90;;;21.29;60.47;95049.00;4995244;28;20040;-33
2022/12/11 07:26:09;;;;;;;4.53;1.80;;;22.80;51.10;;;21.29;60.54;95052.47;5030036;28;20072;-32
2022/12/11 07:28:35;;;;;;;5.32;2.03;;;22.80;51.20;;;21.26;60.69;95050.31;5029837;28;20071;-34
2022/12/11 07:31:08;;;;;;;6.75;1.83;;;22.80;51.40;;;21.32;60.91;95059.13;5029671;28;20037;-33
2022/12/11 07:33:34;;;;;;;5.55;1.98;;;22.80;51.30;;;21.32;60.18;95056.44;5028897;28;20427;-34
2022/12/11 07:36:05;;;;;;;5.10;1.75;;;22.80;51.40;;;21.32;60.69;95059.94;5011555;28;20076;-33
2022/12/11 07:38:31;;;;;;;6.32;1.88;;;22.80;51.30;;;21.34;60.91;95065.00;5011794;28;20030;-32
2022/12/11 07:41:01;;;;;;;6.30;1.90;;;22.80;51.30;;;21.34;60.98;95073.00;5029418;28;20025;-33
2022/12/11 07:43:26;;;;;;;6.88;2.45;;;22.80;51.30;;;21.33;60.79;95061.53;5037429;28;20458;-32
2022/12/11 07:45:52;;;;;;;3.33;1.70;;;22.80;51.30;;;21.33;60.84;95072.22;5029697;28;20068;-32
2022/12/11 07:48:18;;;;;;;5.65;1.83;;;22.80;51.30;;;21.35;60.31;95069.25;5028945;28;20140;-33
2022/12/11 07:50:44;;;;;;;5.45;1.65;;;22.80;51.40;;;21.34;60.38;95067.66;5029085;28;20065;-34
2022/12/11 07:53:09;;;;;;;3.38;1.55;;;22.80;51.40;;;21.35;60.04;95075.41;5029855;28;20398;-32
2022/12/11 07:55:35;;;;;;;6.32;2.38;;;22.80;51.20;;;21.34;59.96;95068.47;5028541;28;20065;-32
2022/12/11 07:58:01;;;;;;;8.85;1.85;;;22.80;51.10;;;21.34;59.92;95073.00;5029650;28;20179;-31
2022/12/11 08:00:27;;;;;;;3.95;1.77;;;22.90;50.80;;;21.33;60.52;95077.56;5028938;28;20072;-33
2022/12/11 08:02:52;;;;;;;5.78;2.40;;;22.90;50.80;;;21.33;59.73;95074.09;5029326;28;20490;-32
2022/12/11 08:05:18;;;;;;;5.30;4.47;;;23.00;50.50;;;21.30;59.04;95059.41;5028817;28;20513;-32
2022/12/11 08:07:44;;;;;;;7.82;5.55;;;22.90;49.80;;;21.29;56.06;95065.84;5028892;28;20546;-32
2022/12/11 08:10:10;;;;;;;10.98;6.25;;;22.90;48.20;;;21.27;55.22;95062.63;5003262;28;20042;-32
2022/12/11 08:12:35;;;;;;;9.00;6.00;;;22.80;46.20;;;21.26;54.21;95061.03;5025868;28;20145;-33
2022/12/11 08:15:01;;;;;;;6.20;4.95;;;22.80;46.40;;;21.27;54.38;95062.63;5029243;28;20033;-32
2022/12/11 08:17:27;;;;;;;5.38;3.97;;;22.80;46.50;;;21.29;53.24;95065.03;5028554;28;20087;-32
2022/12/11 08:19:53;;;;;;;6.03;4.32;;;22.80;46.50;;;21.30;54.04;95067.44;5028268;28;20033;-32
2022/12/11 08:22:18;;;;;;;5.40;4.20;;;22.80;46.80;;;21.30;54.03;95066.63;5028639;28;20120;-33
2022/12/11 08:24:45;;;;;;;5.07;3.90;;;22.70;46.90;;;21.30;53.90;95070.13;5028993;28;20116;-33
2022/12/11 08:27:11;;;;;;;7.40;3.25;;;22.80;47.10;;;21.29;54.74;95068.50;5027685;28;20262;-32
2022/12/11 08:29:38;;;;;;;6.38;3.42;;;22.70;47.30;;;21.31;54.66;95069.03;5024614;28;20068;-32
2022/12/11 08:32:04;;;;;;;7.30;3.20;;;22.80;47.40;;;21.30;54.47;95062.09;5020142;28;20037;-32
2022/12/11 08:34:29;;;;;;;4.95;3.42;;;22.70;47.50;;;21.29;54.74;95076.53;5017600;28;20117;-33
2022/12/11 08:36:55;;;;;;;3.88;2.90;;;22.80;47.60;;;21.30;54.95;95067.44;5027755;28;20068;-32
2022/12/11 08:39:21;;;;;;;6.63;3.17;;;22.70;47.80;;;21.30;55.18;95075.47;5010581;28;20134;-32
2022/12/11 08:41:47;;;;;;;4.15;2.92;;;22.80;47.80;;;21.31;55.57;95074.38;5027707;28;20120;-32
2022/12/11 08:44:13;;;;;;;4.65;2.75;;;22.80;47.90;;;21.32;55.07;95081.31;5028670;28;20567;-32
2022/12/11 08:46:38;;;;;;;3.58;2.90;;;22.80;48.00;;;21.32;55.20;95075.97;5028314;28;20041;-33
2022/12/11 08:49:04;;;;;;;4.60;2.90;;;22.80;48.00;;;21.33;55.34;95082.13;5027823;28;20113;-32
2022/12/11 08:51:30;;;;;;;9.32;2.92;;;22.80;48.10;;;21.33;55.59;95072.22;5027945;28;20037;-32
2022/12/11 08:53:58;;;;;;;4.43;2.88;;;22.80;48.20;;;21.33;55.89;95072.22;5010478;28;20099;-32
2022/12/11 08:56:24;;;;;;;3.45;2.53;;;22.80;48.30;;;21.33;55.62;95079.44;5028197;28;20090;-33
2022/12/11 08:58:50;;;;;;;3.30;2.60;;;22.80;48.30;;;21.33;55.84;95079.44;5028638;28;20045;-32
2022/12/11 09:01:20;;;;;;;4.50;2.97;;;22.80;48.30;;;21.32;55.88;95081.31;5028196;28;20075;-33
2022/12/11 09:03:46;;;;;;;4.30;2.90;;;22.80;48.30;;;21.30;55.46;95080.81;5027479;28;20025;-33
2022/12/11 09:06:14;;;;;;;3.85;2.80;;;22.80;48.40;;;21.30;55.94;95078.13;5028029;28;20033;-33
2022/12/11 09:08:41;;;;;;;5.45;2.70;;;22.80;48.40;;;21.29;55.97;95084.56;5010052;28;20566;-32
2022/12/11 09:11:12;;;;;;;4.35;2.50;;;22.80;48.40;;;21.29;56.20;95087.25;5028219;28;20128;-33
2022/12/11 09:13:38;;;;;;;3.67;2.60;;;22.80;48.50;;;21.29;55.87;95081.88;5009842;28;20390;-32
2022/12/11 09:16:06;;;;;;;4.03;2.35;;;22.80;48.50;;;21.28;55.92;95082.97;5028007;28;20029;-33
2022/12/11 09:18:32;;;;;;;3.40;2.72;;;22.80;48.50;;;21.30;56.09;95083.47;5010318;28;20042;-32
2022/12/11 09:21:02;;;;;;;3.83;2.70;;;22.80;48.50;;;21.31;56.20;95079.72;5010119;28;20402;-32
2022/12/11 09:23:28;;;;;;;3.40;2.58;;;22.80;48.50;;;21.30;56.39;95080.81;5028166;28;20041;-32
2022/12/11 09:25:54;;;;;;;5.10;2.63;;;22.80;48.40;;;21.31;56.18;95079.72;5027700;28;20116;-32
2022/12/11 09:28:19;;;;;;;6.05;2.58;;;22.80;48.50;;;21.31;56.17;95085.06;5027894;28;20568;-32
2022/12/11 09:30:45;;;;;;;4.32;2.60;;;22.80;48.50;;;21.31;56.17;95078.94;5027928;28;20414;-32
2022/12/11 09:33:11;;;;;;;4.32;2.63;;;22.90;48.40;;;21.29;56.63;95071.19;5028064;28;20137;-33
2022/12/11 09:35:37;;;;;;;4.65;2.63;;;22.90;48.50;;;21.30;56.15;95077.34;5027559;28;20554;-33
2022/12/11 09:38:02;;;;;;;3.75;2.58;;;22.90;48.50;;;21.30;56.40;95072.78;5028288;28;20554;-33
2022/12/11 09:40:28;;;;;;;4.57;2.60;;;22.90;48.50;;;21.29;56.46;95071.19;5027469;28;20502;-32
2022/12/11 09:43:02;;;;;;;3.67;2.30;;;22.90;48.50;;;21.29;56.68;95076.53;4993867;28;20474;-33
2022/12/11 09:45:27;;;;;;;3.53;2.33;;;22.90;48.50;;;21.29;56.20;95073.06;4987288;28;20082;-32
2022/12/11 09:47:55;;;;;;;2.90;2.30;;;22.90;48.50;;;21.30;56.54;95069.31;5029552;28;20116;-32
2022/12/11 09:50:31;;;;;;;5.35;2.63;;;22.90;48.40;;;21.31;56.12;95071.72;5012943;28;20497;-32
2022/12/11 09:53:11;;;;;;;4.35;2.75;;;22.90;48.50;;;21.31;56.31;95063.69;5030338;28;20055;-33
2022/12/11 09:56:08;;;;;;;3.30;2.47;;;22.90;48.50;;;21.33;56.44;95072.22;5046995;28;20414;-32
2022/12/11 09:58:58;;;;;;;3.90;2.70;;;22.90;48.50;;;21.32;56.51;95059.94;5047606;28;20056;-33
2022/12/11 10:01:42;;;;;;;3.38;2.50;;;22.90;48.50;;;21.31;56.26;95068.22;5051206;28;20025;-33
2022/12/11 10:04:33;;;;;;;2.95;2.28;;;22.90;48.50;;;21.30;56.33;95056.72;5035265;28;20040;-32
2022/12/11 10:07:05;;;;;;;2.95;2.25;;;22.90;48.50;;;21.31;56.53;95060.22;5012032;28;20419;-32
2022/12/11 10:10:06;;;;;;;3.28;2.42;;;22.90;48.70;;;21.32;56.61;95059.94;5028670;23;20054;-61
2022/12/11 10:12:44;;;;;;;4.03;2.40;;;22.80;48.80;;;21.32;56.44;95065.28;4987671;28;20129;-61
2022/12/11 10:15:31;;;;;;;2.85;2.15;;;22.80;48.90;;;21.35;56.87;95059.34;5005815;28;20117;-61
2022/12/11 10:17:56;;;;;;;2.55;2.03;;;22.80;48.90;;;21.31;56.74;95058.34;5031697;28;20040;-61
2022/12/11 10:20:34;;;;;;;2.70;2.05;;;22.80;49.00;;;21.32;56.79;95051.09;4997902;28;20109;-61
2022/12/11 10:22:59;;;;;;;3.70;2.10;;;22.80;49.00;;;21.35;56.30;95050.53;5030974;28;20040;-60
2022/12/11 10:25:35;;;;;;;3.15;2.25;;;22.80;49.00;;;21.38;56.67;95050.75;4998133;28;20042;-61
2022/12/11 10:28:12;;;;;;;2.75;1.90;;;22.80;49.00;;;21.38;56.34;95048.09;5014939;28;20034;-61
2022/12/11 10:30:51;;;;;;;3.60;2.15;;;22.80;49.00;;;21.36;56.66;95042.22;5031490;28;20115;-60
2022/12/11 10:33:48;;;;;;;3.55;2.35;;;22.80;49.00;;;21.37;56.54;95035.00;5029261;28;20407;-61
2022/12/11 10:36:18;;;;;;;4.28;2.25;;;22.80;49.00;;;21.36;56.90;95034.19;4994745;28;20108;-61